Time;durP1;ratioP1;P1;durP2;ratioP2;P2;SDS_P1;SDS_P2;PMS_P1;PMS_P2;Temp;Humidity;BMP_temperature;BMP_pressure;BME280_temperature;BME280_humidity;BME280_pressure;Samples;Min_cycle;Max_cycle;Signal;HPM_P1;HPM_P2
2021/10/08 00:05:17;;;;;;;9.13;5.10;;;;;;;5.15;100.00;102114.97;21048671;28;20230;-59
2021/10/08 00:15:21;;;;;;;7.93;4.73;;;;;;;4.87;100.00;102117.06;21052108;28;20713;-59
2021/10/08 00:25:23;;;;;;;6.17;5.13;;;;;;;4.31;100.00;102134.44;20994435;28;20858;-60
2021/10/08 00:35:27;;;;;;;8.47;6.30;;;;;;;3.58;100.00;102142.94;20959126;28;20696;-63
2021/10/08 00:45:30;;;;;;;10.73;7.17;;;;;;;3.07;100.00;102155.50;20975434;28;20247;-62
2021/10/08 00:55:34;;;;;;;8.87;5.80;;;;;;;2.84;100.00;102146.81;20952759;28;20228;-59
2021/10/08 01:25:31;;;;;;;7.50;5.53;;;;;;;2.44;100.00;102153.91;20889248;27;20566;-60
2021/10/08 01:35:36;;;;;;;8.10;6.10;;;;;;;2.34;100.00;102163.59;20864475;28;20235;-61
2021/10/08 01:45:41;;;;;;;7.37;5.20;;;;;;;2.20;100.00;102172.38;20871123;28;20223;-61
2021/10/08 02:05:47;;;;;;;8.87;6.07;;;;;;;2.02;100.00;102186.44;21138215;27;20304;-61
2021/10/08 02:15:51;;;;;;;9.03;6.40;;;;;;;2.02;100.00;102183.81;21187214;27;20213;-61
2021/10/08 02:45:51;;;;;;;9.27;5.87;;;;;;;1.74;100.00;102203.94;21085883;27;20598;-60
2021/10/08 03:05:52;;;;;;;7.27;5.50;;;;;;;1.54;100.00;102227.59;21035034;27;21104;-61
2021/10/08 03:25:51;;;;;;;7.90;6.07;;;;;;;1.35;100.00;102217.84;21042845;27;20572;-59
2021/10/08 03:55:52;;;;;;;8.17;5.73;;;;;;;1.24;100.00;102256.38;21058423;27;1368559;-58
2021/10/08 04:15:51;;;;;;;11.20;5.60;;;;;;;1.37;100.00;102255.56;21026644;27;20591;-59
2021/10/08 04:25:55;;;;;;;9.33;5.43;;;;;;;1.84;100.00;102262.75;21045655;28;20226;-60
2021/10/08 04:36:00;;;;;;;10.07;5.53;;;;;;;2.25;100.00;102266.34;21029510;28;20222;-63
2021/10/08 04:46:05;;;;;;;6.67;5.00;;;;;;;2.45;100.00;102274.25;21038361;28;20234;-59
2021/10/08 04:56:11;;;;;;;7.57;4.77;;;;;;;2.57;100.00;102283.91;21027944;28;20306;-61
2021/10/08 05:06:14;;;;;;;10.00;5.03;;;;;;;2.66;100.00;102284.78;21006064;28;20240;-59
2021/10/08 05:16:23;;;;;;;8.60;6.03;;;;;;;2.84;100.00;102289.19;21027516;28;20260;-64
2021/10/08 05:26:25;;;;;;;8.60;5.40;;;;;;;3.09;100.00;102293.53;20963749;28;20287;-60
2021/10/08 05:36:30;;;;;;;5.57;4.77;;;;;;;3.43;100.00;102306.66;20975806;28;20224;-58
2021/10/08 05:46:33;;;;;;;7.57;4.97;;;;;;;3.75;100.00;102320.59;20963625;28;20315;-61
2021/10/08 05:56:36;;;;;;;6.80;5.13;;;;;;;4.06;100.00;102329.28;20970118;28;20221;-61
2021/10/08 06:06:39;;;;;;;5.73;5.13;;;;;;;4.46;100.00;102343.13;20956743;28;20355;-60
2021/10/08 06:26:40;;;;;;;9.37;5.40;;;;;;;5.29;100.00;102362.72;20876499;27;20575;-61
2021/10/08 06:46:42;;;;;;;8.43;5.53;;;;;;;6.14;100.00;102379.44;21092863;27;1447773;-61
2021/10/08 06:56:44;;;;;;;7.37;4.80;;;;;;;6.53;100.00;102399.22;21136518;28;20240;-61
2021/10/08 07:16:54;;;;;;;10.97;5.20;;;;;;;7.32;100.00;102402.38;21055224;27;21158;-61
2021/10/08 07:26:57;;;;;;;10.93;6.00;;;;;;;7.64;99.17;102415.06;21049736;28;20233;-61
2021/10/08 07:37:01;;;;;;;36.67;17.30;;;;;;;8.00;100.00;102430.31;21059481;28;20259;-61
2021/10/08 07:47:03;;;;;;;11.37;6.40;;;;;;;8.50;100.00;102426.63;21111463;28;20830;-63
2021/10/08 07:57:07;;;;;;;8.20;5.27;;;;;;;8.81;100.00;102436.63;21121181;28;20256;-61
2021/10/08 08:07:10;;;;;;;11.63;6.70;;;;;;;9.23;90.13;102440.91;21116214;28;20257;-62
2021/10/08 08:17:13;;;;;;;10.17;6.50;;;;;;;9.66;92.20;102445.97;21099953;28;20607;-61
2021/10/08 08:27:16;;;;;;;10.30;5.63;;;;;;;10.11;91.55;102438.53;21065595;28;20377;-61
2021/10/08 08:37:21;;;;;;;10.67;5.40;;;;;;;10.57;85.65;102439.00;21040779;28;20230;-61
2021/10/08 08:47:23;;;;;;;8.40;5.40;;;;;;;11.01;91.76;102449.16;21063083;28;20226;-62
2021/10/08 08:57:27;;;;;;;10.07;5.83;;;;;;;11.37;83.23;102459.56;21041947;28;20225;-61
2021/10/08 09:07:34;;;;;;;11.90;6.53;;;;;;;11.52;70.29;102456.38;21057743;28;20309;-64
2021/10/08 09:17:39;;;;;;;11.67;5.63;;;;;;;11.79;75.49;102454.59;21047668;28;20226;-65
2021/10/08 09:27:43;;;;;;;8.33;5.97;;;;;;;12.13;79.65;102456.94;21047083;28;20333;-62
2021/10/08 09:37:54;;;;;;;9.70;5.73;;;;;;;12.35;71.68;102452.50;21055384;28;20228;-63
2021/10/08 09:47:59;;;;;;;9.60;6.13;;;;;;;12.67;73.83;102437.03;21034153;28;20252;-64
2021/10/08 09:58:03;;;;;;;12.67;7.83;;;;;;;12.72;63.19;102435.03;21056956;28;20260;-61
2021/10/08 10:08:06;;;;;;;11.23;7.43;;;;;;;12.80;62.62;102441.81;21033184;28;20243;-66
2021/10/08 10:18:12;;;;;;;11.73;7.23;;;;;;;13.04;65.88;102423.88;21055454;28;20633;-61
2021/10/08 10:28:16;;;;;;;8.23;6.50;;;;;;;13.07;66.99;102431.81;21035219;28;20235;-63
2021/10/08 10:38:33;;;;;;;11.40;7.00;;;;;;;13.28;59.54;102422.88;21048421;28;20534;-66
2021/10/08 10:48:43;;;;;;;8.90;5.70;;;;;;;13.46;65.70;102420.38;21040887;28;20227;-62
2021/10/08 10:58:47;;;;;;;11.00;6.07;;;;;;;13.59;65.81;102426.97;21044131;28;20216;-62
2021/10/08 11:09:20;;;;;;;9.27;5.60;;;;;;;13.57;54.92;102418.09;21047732;28;20249;-65
2021/10/08 11:19:41;;;;;;;10.73;5.37;;;;;;;13.62;57.99;102426.84;21037396;28;20227;-66
2021/10/08 11:29:43;;;;;;;10.30;5.30;;;;;;;13.69;63.44;102423.81;21049815;28;20229;-60
2021/10/08 11:39:48;;;;;;;8.40;5.33;;;;;;;13.73;56.68;102416.50;21028884;28;20224;-60
2021/10/08 12:00:19;;;;;;;10.93;6.00;;;;;;;13.88;55.78;102406.91;21037963;28;20239;-60
2021/10/08 12:10:22;;;;;;;11.17;5.53;;;;;;;14.00;64.48;102385.75;21062231;28;21095;-62
2021/10/08 12:20:30;;;;;;;10.97;5.93;;;;;;;14.09;60.03;102388.94;21047189;28;20243;-66
2021/10/08 12:30:32;;;;;;;5.80;5.20;;;;;;;14.14;60.66;102392.28;21055814;28;20938;-61
2021/10/08 12:40:43;;;;;;;8.83;5.53;;;;;;;14.22;60.63;102385.63;21025091;28;20301;-61
2021/10/08 12:50:45;;;;;;;9.87;5.80;;;;;;;14.01;58.36;102382.09;21048317;28;20310;-61
2021/10/08 13:00:50;;;;;;;7.30;4.77;;;;;;;14.03;60.51;102384.72;21060636;28;20392;-60
2021/10/08 13:11:00;;;;;;;8.20;5.00;;;;;;;14.13;60.38;102385.19;21037651;28;20226;-61
2021/10/08 13:21:04;;;;;;;7.37;4.10;;;;;;;14.21;68.77;102369.59;21060166;28;20233;-65
2021/10/08 13:31:06;;;;;;;9.77;4.20;;;;;;;14.14;56.81;102362.75;21034974;28;20229;-62
2021/10/08 13:41:10;;;;;;;4.90;3.60;;;;;;;14.00;62.15;102375.00;21059087;28;20229;-64
2021/10/08 13:51:12;;;;;;;7.67;3.60;;;;;;;13.97;66.63;102375.16;21044229;28;20236;-61
2021/10/08 14:01:16;;;;;;;6.47;3.67;;;;;;;13.96;68.96;102368.03;21048024;28;20343;-61
2021/10/08 14:11:18;;;;;;;6.33;3.80;;;;;;;13.88;67.26;102362.16;21051272;28;20237;-60
2021/10/08 14:21:22;;;;;;;6.27;3.37;;;;;;;13.81;66.03;102352.63;21043238;28;20217;-60
2021/10/08 14:31:24;;;;;;;6.43;3.00;;;;;;;13.71;68.35;102351.28;21057872;28;20229;-61
2021/10/08 14:41:28;;;;;;;5.63;2.83;;;;;;;13.51;65.33;102338.78;21021995;28;20253;-61
2021/10/08 14:51:32;;;;;;;3.50;1.97;;;;;;;13.31;68.21;102347.69;21053057;28;20228;-64
2021/10/08 15:01:39;;;;;;;3.43;1.90;;;;;;;13.04;72.46;102343.47;21035939;28;20313;-64
2021/10/08 15:11:41;;;;;;;3.63;2.27;;;;;;;12.77;70.20;102344.63;21058091;28;20725;-61
2021/10/08 15:21:45;;;;;;;5.93;2.43;;;;;;;12.42;72.12;102348.75;21038755;28;20305;-60
2021/10/08 15:31:47;;;;;;;2.60;2.40;;;;;;;12.04;72.25;102363.59;21058955;28;20245;-64
2021/10/08 15:41:51;;;;;;;3.30;2.40;;;;;;;11.64;76.03;102369.50;21061352;28;20222;-60
2021/10/08 15:51:54;;;;;;;3.77;2.17;;;;;;;11.15;77.47;102372.09;21046081;28;20222;-68
2021/10/08 16:01:58;;;;;;;2.37;2.07;;;;;;;10.72;79.58;102377.13;21067270;28;20318;-66
2021/10/08 16:21:57;;;;;;;2.80;2.13;;;;;;;9.91;81.74;102397.31;20894780;27;20590;-60
2021/10/08 16:32:01;;;;;;;2.70;2.07;;;;;;;9.45;82.28;102403.91;20853486;28;20231;-60
2021/10/08 16:42:05;;;;;;;10.00;4.17;;;;;;;8.88;90.77;102417.78;20889409;28;21183;-60
2021/10/08 16:52:11;;;;;;;8.37;3.97;;;;;;;8.38;95.62;102416.25;20856865;28;20328;-56
2021/10/08 17:12:12;;;;;;;6.33;4.80;;;;;;;7.52;100.00;102427.69;21046125;27;20572;-56
2021/10/08 18:02:01;;;;;;;14.50;8.60;;;;;;;6.54;100.00;102440.75;20968178;27;21964;-59
2021/10/08 18:51:57;;;;;;;16.33;10.43;;;;;;;5.30;100.00;102473.03;21126957;27;20302;-60
2021/10/08 19:52:03;;;;;;;12.43;8.40;;;;;;;4.58;100.00;102469.97;20973895;27;20691;-64
2021/10/08 20:22:21;;;;;;;13.90;9.20;;;;;;;4.34;100.00;102470.09;20990573;28;20229;-60
2021/10/08 20:42:23;;;;;;;15.60;10.10;;;;;;;4.15;100.00;102463.97;20879275;27;20643;-60
2021/10/08 20:52:26;;;;;;;15.13;9.70;;;;;;;4.03;100.00;102457.84;20864709;28;20317;-63
2021/10/08 23:52:13;;;;;;;10.40;8.33;;;;;;;2.41;100.00;102452.56;20988028;27;20625;-60
